sensor_id;sensor_type;location;lat;lon;timestamp;pressure;altitude;pressure_sealevel;temperature;humidity
59545;BME280;45368;55.002;-1.592;2023-04-03T00:00:42;102564.20;;;5.70;47.42
59545;BME280;45368;55.002;-1.592;2023-04-03T00:03:10;102565.26;;;4.99;49.09
59545;BME280;45368;55.002;-1.592;2023-04-03T00:05:37;102572.54;;;3.76;52.09
59545;BME280;45368;55.002;-1.592;2023-04-03T00:08:05;102563.28;;;5.64;48.22
59545;BME280;45368;55.002;-1.592;2023-04-03T00:10:33;102569.22;;;3.64;50.57
59545;BME280;45368;55.002;-1.592;2023-04-03T00:13:00;102566.84;;;4.77;49.43
59545;BME280;45368;55.002;-1.592;2023-04-03T00:15:28;102560.84;;;5.56;48.44
59545;BME280;45368;55.002;-1.592;2023-04-03T00:17:55;102560.67;;;3.79;50.78
59545;BME280;45368;55.002;-1.592;2023-04-03T00:20:22;102572.00;;;3.15;53.38
59545;BME280;45368;55.002;-1.592;2023-04-03T00:22:51;102561.99;;;4.42;51.15
59545;BME280;45368;55.002;-1.592;2023-04-03T00:25:18;102559.58;;;4.05;51.18
59545;BME280;45368;55.002;-1.592;2023-04-03T00:27:46;102555.11;;;5.04;49.32
59545;BME280;45368;55.002;-1.592;2023-04-03T00:30:16;102548.81;;;5.83;47.82
59545;BME280;45368;55.002;-1.592;2023-04-03T00:32:43;102551.95;;;5.02;48.28
59545;BME280;45368;55.002;-1.592;2023-04-03T00:35:11;102550.65;;;5.12;48.12
59545;BME280;45368;55.002;-1.592;2023-04-03T00:37:38;102551.78;;;5.18;48.50
59545;BME280;45368;55.002;-1.592;2023-04-03T00:40:06;102548.15;;;5.90;46.57
59545;BME280;45368;55.002;-1.592;2023-04-03T00:42:35;102550.46;;;4.33;49.40
59545;BME280;45368;55.002;-1.592;2023-04-03T00:45:30;102559.65;;;2.75;52.80
59545;BME280;45368;55.002;-1.592;2023-04-03T00:48:00;102554.56;;;3.47;52.31
59545;BME280;45368;55.002;-1.592;2023-04-03T00:50:28;102546.43;;;4.19;51.07
59545;BME280;45368;55.002;-1.592;2023-04-03T00:52:56;102537.68;;;5.61;48.62
59545;BME280;45368;55.002;-1.592;2023-04-03T00:55:25;102534.23;;;5.18;47.43
59545;BME280;45368;55.002;-1.592;2023-04-03T00:57:52;102533.10;;;5.27;48.24
59545;BME280;45368;55.002;-1.592;2023-04-03T01:00:22;102532.17;;;5.89;46.74
59545;BME280;45368;55.002;-1.592;2023-04-03T01:02:50;102529.83;;;6.52;45.64
59545;BME280;45368;55.002;-1.592;2023-04-03T01:05:20;102542.13;;;4.01;48.85
59545;BME280;45368;55.002;-1.592;2023-04-03T01:07:49;102542.87;;;3.95;50.03
59545;BME280;45368;55.002;-1.592;2023-04-03T01:10:18;102540.23;;;4.35;48.83
59545;BME280;45368;55.002;-1.592;2023-04-03T01:12:48;102544.20;;;4.04;49.72
59545;BME280;45368;55.002;-1.592;2023-04-03T01:15:18;102540.29;;;5.79;46.56
59545;BME280;45368;55.002;-1.592;2023-04-03T01:17:47;102535.95;;;6.65;45.52
59545;BME280;45368;55.002;-1.592;2023-04-03T01:21:08;102538.23;;;6.72;45.37
59545;BME280;45368;55.002;-1.592;2023-04-03T01:23:49;102539.24;;;6.42;45.23
59545;BME280;45368;55.002;-1.592;2023-04-03T01:26:18;102543.28;;;6.75;44.32
59545;BME280;45368;55.002;-1.592;2023-04-03T01:28:45;102546.33;;;5.93;45.56
59545;BME280;45368;55.002;-1.592;2023-04-03T01:31:19;102542.93;;;6.18;45.08
59545;BME280;45368;55.002;-1.592;2023-04-03T01:33:49;102538.72;;;7.10;44.32
59545;BME280;45368;55.002;-1.592;2023-04-03T01:36:19;102537.93;;;6.61;44.30
59545;BME280;45368;55.002;-1.592;2023-04-03T01:38:47;102535.32;;;6.80;44.36
59545;BME280;45368;55.002;-1.592;2023-04-03T01:41:14;102541.68;;;5.36;46.73
59545;BME280;45368;55.002;-1.592;2023-04-03T01:43:42;102546.96;;;4.41;48.17
59545;BME280;45368;55.002;-1.592;2023-04-03T01:46:09;102541.50;;;5.95;45.83
59545;BME280;45368;55.002;-1.592;2023-04-03T01:48:37;102538.53;;;6.63;44.77
59545;BME280;45368;55.002;-1.592;2023-04-03T01:51:04;102542.24;;;6.23;45.49
59545;BME280;45368;55.002;-1.592;2023-04-03T01:53:32;102543.84;;;4.69;47.22
59545;BME280;45368;55.002;-1.592;2023-04-03T01:55:59;102541.02;;;4.77;47.94
59545;BME280;45368;55.002;-1.592;2023-04-03T01:58:26;102540.07;;;5.99;45.31
59545;BME280;45368;55.002;-1.592;2023-04-03T02:00:53;102537.20;;;6.12;45.29
59545;BME280;45368;55.002;-1.592;2023-04-03T02:03:20;102537.48;;;6.47;44.53
59545;BME280;45368;55.002;-1.592;2023-04-03T02:05:48;102539.66;;;6.46;44.55
59545;BME280;45368;55.002;-1.592;2023-04-03T02:08:15;102538.63;;;6.63;44.26
59545;BME280;45368;55.002;-1.592;2023-04-03T02:10:43;102540.68;;;6.25;44.49
59545;BME280;45368;55.002;-1.592;2023-04-03T02:13:11;102543.10;;;6.32;44.87
59545;BME280;45368;55.002;-1.592;2023-04-03T02:15:38;102540.20;;;6.44;44.38
59545;BME280;45368;55.002;-1.592;2023-04-03T02:18:05;102542.64;;;6.05;44.69
59545;BME280;45368;55.002;-1.592;2023-04-03T02:20:33;102540.49;;;6.40;44.42
59545;BME280;45368;55.002;-1.592;2023-04-03T02:23:00;102540.20;;;6.20;44.78
59545;BME280;45368;55.002;-1.592;2023-04-03T02:25:28;102542.23;;;6.29;44.37
59545;BME280;45368;55.002;-1.592;2023-04-03T02:27:55;102541.04;;;5.95;45.06
59545;BME280;45368;55.002;-1.592;2023-04-03T02:30:22;102542.62;;;4.93;46.50
59545;BME280;45368;55.002;-1.592;2023-04-03T02:32:50;102540.47;;;5.95;45.23
59545;BME280;45368;55.002;-1.592;2023-04-03T02:35:17;102537.45;;;6.39;45.09
59545;BME280;45368;55.002;-1.592;2023-04-03T02:37:44;102534.50;;;5.84;45.08
59545;BME280;45368;55.002;-1.592;2023-04-03T02:40:11;102531.72;;;5.71;45.31
59545;BME280;45368;55.002;-1.592;2023-04-03T02:42:39;102534.02;;;5.85;44.92
59545;BME280;45368;55.002;-1.592;2023-04-03T02:45:07;102532.81;;;6.20;45.05
59545;BME280;45368;55.002;-1.592;2023-04-03T02:47:34;102533.69;;;5.48;45.47
59545;BME280;45368;55.002;-1.592;2023-04-03T02:50:01;102528.79;;;5.63;45.27
59545;BME280;45368;55.002;-1.592;2023-04-03T02:52:28;102532.72;;;4.89;46.37
59545;BME280;45368;55.002;-1.592;2023-04-03T02:54:55;102536.64;;;4.60;47.43
59545;BME280;45368;55.002;-1.592;2023-04-03T02:57:22;102530.66;;;5.67;46.20
59545;BME280;45368;55.002;-1.592;2023-04-03T02:59:49;102527.45;;;5.55;46.02
59545;BME280;45368;55.002;-1.592;2023-04-03T03:02:16;102525.84;;;5.42;46.03
59545;BME280;45368;55.002;-1.592;2023-04-03T03:04:43;102526.61;;;5.54;46.38
59545;BME280;45368;55.002;-1.592;2023-04-03T03:07:11;102523.65;;;5.60;46.31
59545;BME280;45368;55.002;-1.592;2023-04-03T03:09:39;102522.82;;;5.40;46.00
59545;BME280;45368;55.002;-1.592;2023-04-03T03:12:05;102521.68;;;5.39;45.78
59545;BME280;45368;55.002;-1.592;2023-04-03T03:14:33;102521.19;;;5.60;45.93
59545;BME280;45368;55.002;-1.592;2023-04-03T03:17:00;102519.39;;;5.70;45.55
59545;BME280;45368;55.002;-1.592;2023-04-03T03:19:27;102516.30;;;5.61;45.74
59545;BME280;45368;55.002;-1.592;2023-04-03T03:21:54;102514.55;;;5.62;45.68
59545;BME280;45368;55.002;-1.592;2023-04-03T03:24:21;102512.68;;;5.43;46.09
59545;BME280;45368;55.002;-1.592;2023-04-03T03:26:49;102514.50;;;5.73;45.61
59545;BME280;45368;55.002;-1.592;2023-04-03T03:29:16;102515.34;;;5.49;45.91
59545;BME280;45368;55.002;-1.592;2023-04-03T03:31:43;102513.98;;;5.34;46.01
59545;BME280;45368;55.002;-1.592;2023-04-03T03:34:10;102513.74;;;5.28;46.13
59545;BME280;45368;55.002;-1.592;2023-04-03T03:36:37;102514.07;;;5.32;46.46
59545;BME280;45368;55.002;-1.592;2023-04-03T03:39:04;102512.48;;;5.21;46.46
59545;BME280;45368;55.002;-1.592;2023-04-03T03:41:31;102508.07;;;5.29;46.68
59545;BME280;45368;55.002;-1.592;2023-04-03T03:43:59;102507.80;;;4.90;46.77
59545;BME280;45368;55.002;-1.592;2023-04-03T03:46:27;102514.16;;;4.93;46.73
59545;BME280;45368;55.002;-1.592;2023-04-03T03:48:55;102513.35;;;4.94;47.01
59545;BME280;45368;55.002;-1.592;2023-04-03T03:51:22;102514.87;;;4.89;47.57
59545;BME280;45368;55.002;-1.592;2023-04-03T03:53:49;102516.48;;;5.04;47.08
59545;BME280;45368;55.002;-1.592;2023-04-03T03:56:16;102515.80;;;4.83;46.65
59545;BME280;45368;55.002;-1.592;2023-04-03T03:58:43;102518.57;;;5.04;46.85
59545;BME280;45368;55.002;-1.592;2023-04-03T04:01:11;102514.55;;;4.88;46.94
59545;BME280;45368;55.002;-1.592;2023-04-03T04:03:38;102517.57;;;5.06;46.56
59545;BME280;45368;55.002;-1.592;2023-04-03T04:06:05;102514.95;;;4.93;46.54
59545;BME280;45368;55.002;-1.592;2023-04-03T04:08:32;102513.20;;;4.69;47.29
59545;BME280;45368;55.002;-1.592;2023-04-03T04:10:59;102519.60;;;4.56;47.26
59545;BME280;45368;55.002;-1.592;2023-04-03T04:13:26;102518.25;;;4.73;47.02
59545;BME280;45368;55.002;-1.592;2023-04-03T04:15:53;102515.98;;;4.79;47.01
59545;BME280;45368;55.002;-1.592;2023-04-03T04:18:20;102526.25;;;3.55;48.72
59545;BME280;45368;55.002;-1.592;2023-04-03T04:20:47;102531.08;;;2.13;52.79
59545;BME280;45368;55.002;-1.592;2023-04-03T04:23:15;102531.09;;;1.43;55.13
59545;BME280;45368;55.002;-1.592;2023-04-03T04:25:44;102522.40;;;3.27;51.05
59545;BME280;45368;55.002;-1.592;2023-04-03T04:28:11;102523.23;;;3.33;51.34
59545;BME280;45368;55.002;-1.592;2023-04-03T04:30:39;102515.07;;;4.21;48.93
59545;BME280;45368;55.002;-1.592;2023-04-03T04:33:06;102510.88;;;4.80;48.16
59545;BME280;45368;55.002;-1.592;2023-04-03T04:35:34;102510.28;;;4.81;47.65
59545;BME280;45368;55.002;-1.592;2023-04-03T04:38:01;102509.23;;;5.05;47.53
59545;BME280;45368;55.002;-1.592;2023-04-03T04:40:29;102506.28;;;4.82;47.14
59545;BME280;45368;55.002;-1.592;2023-04-03T04:42:57;102506.35;;;4.74;47.39
59545;BME280;45368;55.002;-1.592;2023-04-03T04:45:24;102506.95;;;4.60;47.27
59545;BME280;45368;55.002;-1.592;2023-04-03T04:47:53;102507.29;;;4.67;47.02
59545;BME280;45368;55.002;-1.592;2023-04-03T04:50:21;102506.77;;;4.60;47.19
59545;BME280;45368;55.002;-1.592;2023-04-03T04:52:48;102507.82;;;4.79;47.37
59545;BME280;45368;55.002;-1.592;2023-04-03T04:55:18;102505.84;;;4.97;46.97
59545;BME280;45368;55.002;-1.592;2023-04-03T04:57:45;102504.43;;;4.85;47.06
59545;BME280;45368;55.002;-1.592;2023-04-03T05:00:13;102499.57;;;4.87;46.74
59545;BME280;45368;55.002;-1.592;2023-04-03T05:02:44;102503.05;;;4.54;47.70
59545;BME280;45368;55.002;-1.592;2023-04-03T05:05:11;102505.12;;;4.14;48.10
59545;BME280;45368;55.002;-1.592;2023-04-03T05:07:39;102507.02;;;4.33;47.79
59545;BME280;45368;55.002;-1.592;2023-04-03T05:10:07;102520.57;;;2.01;52.57
59545;BME280;45368;55.002;-1.592;2023-04-03T05:12:35;102523.83;;;1.58;54.94
59545;BME280;45368;55.002;-1.592;2023-04-03T05:15:03;102519.07;;;2.07;53.90
59545;BME280;45368;55.002;-1.592;2023-04-03T05:17:31;102517.93;;;3.75;50.31
59545;BME280;45368;55.002;-1.592;2023-04-03T05:19:58;102518.03;;;3.65;49.53
59545;BME280;45368;55.002;-1.592;2023-04-03T05:22:25;102514.15;;;4.22;48.64
59545;BME280;45368;55.002;-1.592;2023-04-03T05:24:53;102514.88;;;4.62;48.13
59545;BME280;45368;55.002;-1.592;2023-04-03T05:27:20;102518.13;;;4.42;47.64
59545;BME280;45368;55.002;-1.592;2023-04-03T05:29:47;102520.77;;;4.81;47.31
59545;BME280;45368;55.002;-1.592;2023-04-03T05:32:14;102516.80;;;4.59;47.25
59545;BME280;45368;55.002;-1.592;2023-04-03T05:34:42;102518.39;;;4.47;47.28
59545;BME280;45368;55.002;-1.592;2023-04-03T05:37:09;102518.79;;;4.73;47.15
59545;BME280;45368;55.002;-1.592;2023-04-03T05:39:36;102515.24;;;4.61;47.23
59545;BME280;45368;55.002;-1.592;2023-04-03T05:42:04;102515.89;;;4.95;47.00
59545;BME280;45368;55.002;-1.592;2023-04-03T05:44:31;102514.65;;;4.89;47.11
59545;BME280;45368;55.002;-1.592;2023-04-03T05:46:58;102522.09;;;3.98;48.95
59545;BME280;45368;55.002;-1.592;2023-04-03T05:49:26;102519.65;;;4.71;47.57
59545;BME280;45368;55.002;-1.592;2023-04-03T05:51:54;102516.77;;;4.57;47.30
59545;BME280;45368;55.002;-1.592;2023-04-03T05:54:24;102518.41;;;3.12;49.99
59545;BME280;45368;55.002;-1.592;2023-04-03T05:56:52;102514.99;;;3.76;50.25
59545;BME280;45368;55.002;-1.592;2023-04-03T05:59:20;102516.71;;;2.70;52.44
59545;BME280;45368;55.002;-1.592;2023-04-03T06:01:48;102518.58;;;1.79;54.28
59545;BME280;45368;55.002;-1.592;2023-04-03T06:04:15;102511.59;;;3.40;51.67
59545;BME280;45368;55.002;-1.592;2023-04-03T06:06:46;102507.65;;;4.20;49.49
59545;BME280;45368;55.002;-1.592;2023-04-03T06:09:14;102509.21;;;4.97;48.35
59545;BME280;45368;55.002;-1.592;2023-04-03T06:11:41;102508.64;;;4.87;47.58
59545;BME280;45368;55.002;-1.592;2023-04-03T06:14:09;102509.66;;;4.84;47.46
59545;BME280;45368;55.002;-1.592;2023-04-03T06:16:37;102510.96;;;5.28;47.06
59545;BME280;45368;55.002;-1.592;2023-04-03T06:19:05;102512.01;;;4.85;47.70
59545;BME280;45368;55.002;-1.592;2023-04-03T06:21:32;102505.12;;;5.19;47.32
59545;BME280;45368;55.002;-1.592;2023-04-03T06:24:00;102506.63;;;5.24;47.33
59545;BME280;45368;55.002;-1.592;2023-04-03T06:26:27;102510.26;;;5.50;46.95
59545;BME280;45368;55.002;-1.592;2023-04-03T06:28:54;102510.28;;;5.32;46.99
59545;BME280;45368;55.002;-1.592;2023-04-03T06:31:22;102511.88;;;5.42;46.80
59545;BME280;45368;55.002;-1.592;2023-04-03T06:33:50;102513.43;;;5.26;47.34
59545;BME280;45368;55.002;-1.592;2023-04-03T06:36:19;102513.90;;;5.56;47.20
59545;BME280;45368;55.002;-1.592;2023-04-03T06:38:46;102519.97;;;5.69;47.20
59545;BME280;45368;55.002;-1.592;2023-04-03T06:41:13;102521.52;;;5.11;47.70
59545;BME280;45368;55.002;-1.592;2023-04-03T06:43:42;102523.14;;;5.15;48.60
59545;BME280;45368;55.002;-1.592;2023-04-03T06:46:13;102522.90;;;5.12;48.55
59545;BME280;45368;55.002;-1.592;2023-04-03T06:48:40;102522.53;;;5.39;47.57
59545;BME280;45368;55.002;-1.592;2023-04-03T06:51:15;102520.83;;;5.32;47.94
59545;BME280;45368;55.002;-1.592;2023-04-03T06:53:44;102525.10;;;5.28;47.68
59545;BME280;45368;55.002;-1.592;2023-04-03T06:56:11;102531.64;;;4.49;50.06
59545;BME280;45368;55.002;-1.592;2023-04-03T06:58:38;102526.07;;;5.16;48.40
59545;BME280;45368;55.002;-1.592;2023-04-03T07:01:07;102535.80;;;3.42;52.43
59545;BME280;45368;55.002;-1.592;2023-04-03T07:03:34;102533.31;;;3.28;53.29
59545;BME280;45368;55.002;-1.592;2023-04-03T07:06:02;102535.86;;;1.68;57.45
59545;BME280;45368;55.002;-1.592;2023-04-03T07:08:29;102534.72;;;2.23;57.16
59545;BME280;45368;55.002;-1.592;2023-04-03T07:10:56;102534.18;;;3.47;54.61
59545;BME280;45368;55.002;-1.592;2023-04-03T07:13:24;102538.26;;;3.10;55.65
59545;BME280;45368;55.002;-1.592;2023-04-03T07:15:52;102534.99;;;3.65;54.50
59545;BME280;45368;55.002;-1.592;2023-04-03T07:18:19;102537.86;;;3.92;54.03
59545;BME280;45368;55.002;-1.592;2023-04-03T07:20:47;102537.04;;;3.33;54.01
59545;BME280;45368;55.002;-1.592;2023-04-03T07:23:14;102541.34;;;3.33;55.12
59545;BME280;45368;55.002;-1.592;2023-04-03T07:25:43;102540.51;;;3.05;55.59
59545;BME280;45368;55.002;-1.592;2023-04-03T07:28:10;102543.58;;;3.35;55.17
59545;BME280;45368;55.002;-1.592;2023-04-03T07:30:42;102543.49;;;3.03;55.77
59545;BME280;45368;55.002;-1.592;2023-04-03T07:33:09;102541.41;;;3.62;55.20
59545;BME280;45368;55.002;-1.592;2023-04-03T07:35:36;102540.28;;;3.75;54.53
59545;BME280;45368;55.002;-1.592;2023-04-03T07:38:04;102546.18;;;3.22;55.21
59545;BME280;45368;55.002;-1.592;2023-04-03T07:40:33;102545.15;;;2.74;56.79
59545;BME280;45368;55.002;-1.592;2023-04-03T07:43:00;102546.41;;;3.12;56.50
59545;BME280;45368;55.002;-1.592;2023-04-03T07:45:28;102543.56;;;3.11;55.52
59545;BME280;45368;55.002;-1.592;2023-04-03T07:47:55;102540.92;;;3.48;55.95
59545;BME280;45368;55.002;-1.592;2023-04-03T07:50:23;102533.79;;;3.81;54.69
59545;BME280;45368;55.002;-1.592;2023-04-03T07:52:50;102531.78;;;4.07;54.32
59545;BME280;45368;55.002;-1.592;2023-04-03T07:55:17;102533.51;;;3.90;54.35
59545;BME280;45368;55.002;-1.592;2023-04-03T07:57:49;102527.50;;;4.25;53.64
59545;BME280;45368;55.002;-1.592;2023-04-03T08:00:17;102541.05;;;3.24;55.87
59545;BME280;45368;55.002;-1.592;2023-04-03T08:02:44;102537.83;;;3.85;55.34
59545;BME280;45368;55.002;-1.592;2023-04-03T08:05:12;102530.20;;;5.17;51.87
59545;BME280;45368;55.002;-1.592;2023-04-03T08:07:39;102527.02;;;5.57;49.89
59545;BME280;45368;55.002;-1.592;2023-04-03T08:10:07;102530.45;;;5.64;50.33
59545;BME280;45368;55.002;-1.592;2023-04-03T08:12:34;102533.59;;;5.11;51.37
59545;BME280;45368;55.002;-1.592;2023-04-03T08:15:01;102532.34;;;5.51;49.66
59545;BME280;45368;55.002;-1.592;2023-04-03T08:17:28;102531.82;;;5.85;49.26
59545;BME280;45368;55.002;-1.592;2023-04-03T08:19:55;102534.70;;;4.94;50.50
59545;BME280;45368;55.002;-1.592;2023-04-03T08:22:22;102537.09;;;5.02;51.82
59545;BME280;45368;55.002;-1.592;2023-04-03T08:24:49;102535.05;;;4.58;52.94
59545;BME280;45368;55.002;-1.592;2023-04-03T08:27:16;102533.08;;;4.26;53.29
59545;BME280;45368;55.002;-1.592;2023-04-03T08:29:43;102533.03;;;4.58;52.66
59545;BME280;45368;55.002;-1.592;2023-04-03T08:32:10;102530.19;;;5.00;52.51
59545;BME280;45368;55.002;-1.592;2023-04-03T08:34:38;102524.55;;;4.77;51.79
59545;BME280;45368;55.002;-1.592;2023-04-03T08:37:05;102528.59;;;3.95;53.25
59545;BME280;45368;55.002;-1.592;2023-04-03T08:39:32;102527.83;;;3.91;54.62
59545;BME280;45368;55.002;-1.592;2023-04-03T08:42:05;102527.13;;;3.65;54.66
59545;BME280;45368;55.002;-1.592;2023-04-03T08:44:39;102529.83;;;4.21;53.72
59545;BME280;45368;55.002;-1.592;2023-04-03T08:47:21;102520.95;;;4.32;53.79
59545;BME280;45368;55.002;-1.592;2023-04-03T08:49:52;102519.44;;;4.52;52.77
59545;BME280;45368;55.002;-1.592;2023-04-03T08:52:33;102518.59;;;4.35;51.92
59545;BME280;45368;55.002;-1.592;2023-04-03T08:55:03;102521.82;;;5.02;51.93
59545;BME280;45368;55.002;-1.592;2023-04-03T08:57:35;102525.61;;;3.98;53.17
59545;BME280;45368;55.002;-1.592;2023-04-03T09:00:06;102524.10;;;4.33;53.26
59545;BME280;45368;55.002;-1.592;2023-04-03T09:02:43;102524.07;;;4.31;53.55
59545;BME280;45368;55.002;-1.592;2023-04-03T09:05:13;102523.27;;;3.94;54.25
59545;BME280;45368;55.002;-1.592;2023-04-03T09:07:45;102521.75;;;4.08;53.09
59545;BME280;45368;55.002;-1.592;2023-04-03T09:10:15;102516.07;;;3.77;54.96
59545;BME280;45368;55.002;-1.592;2023-04-03T09:13:01;102518.08;;;4.21;53.77
59545;BME280;45368;55.002;-1.592;2023-04-03T09:15:32;102523.56;;;3.71;54.68
59545;BME280;45368;55.002;-1.592;2023-04-03T09:18:03;102517.17;;;4.31;53.82
59545;BME280;45368;55.002;-1.592;2023-04-03T09:20:41;102520.60;;;3.64;54.81
59545;BME280;45368;55.002;-1.592;2023-04-03T09:23:18;102517.60;;;4.06;55.17
59545;BME280;45368;55.002;-1.592;2023-04-03T09:25:47;102512.68;;;4.10;54.79
59545;BME280;45368;55.002;-1.592;2023-04-03T09:28:17;102503.36;;;5.08;52.70
59545;BME280;45368;55.002;-1.592;2023-04-03T09:30:44;102503.13;;;5.33;51.75
59545;BME280;45368;55.002;-1.592;2023-04-03T09:33:12;102504.96;;;4.60;52.66
59545;BME280;45368;55.002;-1.592;2023-04-03T09:35:49;102507.74;;;4.96;52.40
59545;BME280;45368;55.002;-1.592;2023-04-03T09:38:19;102504.06;;;4.87;52.44
59545;BME280;45368;55.002;-1.592;2023-04-03T09:40:49;102499.05;;;5.31;50.66
59545;BME280;45368;55.002;-1.592;2023-04-03T09:43:26;102498.32;;;5.91;50.54
59545;BME280;45368;55.002;-1.592;2023-04-03T09:45:55;102492.45;;;5.86;50.00
59545;BME280;45368;55.002;-1.592;2023-04-03T09:48:24;102491.72;;;6.17;48.96
59545;BME280;45368;55.002;-1.592;2023-04-03T09:50:56;102489.09;;;5.44;50.21
59545;BME280;45368;55.002;-1.592;2023-04-03T09:53:29;102490.82;;;5.97;49.35
59545;BME280;45368;55.002;-1.592;2023-04-03T09:55:57;102488.87;;;6.41;48.99
59545;BME280;45368;55.002;-1.592;2023-04-03T09:58:27;102493.30;;;6.03;47.93
59545;BME280;45368;55.002;-1.592;2023-04-03T10:00:57;102482.21;;;6.13;48.50
59545;BME280;45368;55.002;-1.592;2023-04-03T10:03:29;102478.58;;;6.58;47.34
59545;BME280;45368;55.002;-1.592;2023-04-03T10:05:57;102482.26;;;6.05;46.89
59545;BME280;45368;55.002;-1.592;2023-04-03T10:08:28;102479.37;;;6.40;48.28
59545;BME280;45368;55.002;-1.592;2023-04-03T10:11:15;102475.19;;;6.28;47.06
59545;BME280;45368;55.002;-1.592;2023-04-03T10:14:03;102474.77;;;7.01;46.23
59545;BME280;45368;55.002;-1.592;2023-04-03T10:16:37;102471.73;;;6.73;47.05
59545;BME280;45368;55.002;-1.592;2023-04-03T10:19:20;102466.53;;;6.17;48.08
59545;BME280;45368;55.002;-1.592;2023-04-03T10:22:02;102467.98;;;5.99;48.46
59545;BME280;45368;55.002;-1.592;2023-04-03T10:24:37;102461.43;;;6.41;47.75
59545;BME280;45368;55.002;-1.592;2023-04-03T10:27:19;102455.77;;;6.96;45.47
59545;BME280;45368;55.002;-1.592;2023-04-03T10:30:00;102458.14;;;6.50;46.78
59545;BME280;45368;55.002;-1.592;2023-04-03T10:32:48;102456.80;;;6.68;46.40
59545;BME280;45368;55.002;-1.592;2023-04-03T10:35:28;102452.02;;;7.08;45.93
59545;BME280;45368;55.002;-1.592;2023-04-03T10:38:05;102451.13;;;7.31;43.70
59545;BME280;45368;55.002;-1.592;2023-04-03T10:40:44;102449.78;;;6.55;45.06
59545;BME280;45368;55.002;-1.592;2023-04-03T10:43:21;102445.90;;;7.46;44.36
59545;BME280;45368;55.002;-1.592;2023-04-03T10:45:57;102445.52;;;7.13;44.72
59545;BME280;45368;55.002;-1.592;2023-04-03T10:48:42;102443.09;;;7.71;45.07
59545;BME280;45368;55.002;-1.592;2023-04-03T10:51:20;102434.81;;;7.36;43.99
59545;BME280;45368;55.002;-1.592;2023-04-03T10:53:55;102430.22;;;8.15;43.57
59545;BME280;45368;55.002;-1.592;2023-04-03T10:56:32;102423.65;;;9.62;40.00
59545;BME280;45368;55.002;-1.592;2023-04-03T10:59:16;102419.85;;;10.99;37.50
59545;BME280;45368;55.002;-1.592;2023-04-03T11:01:54;102419.51;;;11.44;36.76
59545;BME280;45368;55.002;-1.592;2023-04-03T11:04:27;102417.88;;;11.27;36.15
59545;BME280;45368;55.002;-1.592;2023-04-03T11:09:26;102396.20;;;14.87;31.31
59545;BME280;45368;55.002;-1.592;2023-04-03T11:12:04;102409.46;;;12.15;34.11
59545;BME280;45368;55.002;-1.592;2023-04-03T11:14:34;102408.66;;;12.26;33.39
59545;BME280;45368;55.002;-1.592;2023-04-03T11:17:12;102407.37;;;12.93;33.22
59545;BME280;45368;55.002;-1.592;2023-04-03T11:19:47;102400.74;;;12.86;32.77
59545;BME280;45368;55.002;-1.592;2023-04-03T11:22:22;102397.21;;;12.60;32.72
59545;BME280;45368;55.002;-1.592;2023-04-03T11:24:58;102390.55;;;12.97;33.44
59545;BME280;45368;55.002;-1.592;2023-04-03T11:27:27;102388.34;;;12.97;32.57
59545;BME280;45368;55.002;-1.592;2023-04-03T11:29:58;102390.46;;;12.77;32.38
59545;BME280;45368;55.002;-1.592;2023-04-03T11:32:41;102390.15;;;12.67;33.25
59545;BME280;45368;55.002;-1.592;2023-04-03T11:35:14;102374.79;;;14.33;31.10
59545;BME280;45368;55.002;-1.592;2023-04-03T11:37:46;102369.57;;;13.90;31.56
59545;BME280;45368;55.002;-1.592;2023-04-03T11:40:23;102385.98;;;12.22;33.35
59545;BME280;45368;55.002;-1.592;2023-04-03T11:43:06;102383.08;;;12.05;34.04
59545;BME280;45368;55.002;-1.592;2023-04-03T11:45:38;102377.46;;;12.78;32.26
59545;BME280;45368;55.002;-1.592;2023-04-03T11:48:47;102372.76;;;11.47;33.77
59545;BME280;45368;55.002;-1.592;2023-04-03T11:51:46;102382.32;;;11.33;35.08
59545;BME280;45368;55.002;-1.592;2023-04-03T11:55:43;102387.49;;;10.72;36.65
59545;BME280;45368;55.002;-1.592;2023-04-03T11:58:14;102393.48;;;9.34;38.69
59545;BME280;45368;55.002;-1.592;2023-04-03T12:00:55;102391.45;;;9.27;40.09
59545;BME280;45368;55.002;-1.592;2023-04-03T12:04:08;102386.34;;;10.35;40.36
59545;BME280;45368;55.002;-1.592;2023-04-03T12:06:54;102379.96;;;10.24;40.20
59545;BME280;45368;55.002;-1.592;2023-04-03T12:09:29;102378.31;;;10.07;43.31
59545;BME280;45368;55.002;-1.592;2023-04-03T12:11:59;102378.01;;;9.93;43.23
59545;BME280;45368;55.002;-1.592;2023-04-03T12:14:28;102372.81;;;10.13;43.60
59545;BME280;45368;55.002;-1.592;2023-04-03T12:16:56;102371.35;;;9.86;45.02
59545;BME280;45368;55.002;-1.592;2023-04-03T12:19:34;102372.20;;;9.22;44.78
59545;BME280;45368;55.002;-1.592;2023-04-03T12:22:19;102376.59;;;9.27;45.70
59545;BME280;45368;55.002;-1.592;2023-04-03T12:24:48;102373.63;;;9.71;43.84
59545;BME280;45368;55.002;-1.592;2023-04-03T12:27:29;102362.42;;;9.21;44.17
59545;BME280;45368;55.002;-1.592;2023-04-03T12:30:07;102350.92;;;9.57;44.74
59545;BME280;45368;55.002;-1.592;2023-04-03T12:33:01;102354.54;;;9.54;44.00
59545;BME280;45368;55.002;-1.592;2023-04-03T12:35:35;102356.89;;;8.77;46.12
59545;BME280;45368;55.002;-1.592;2023-04-03T12:38:21;102356.13;;;8.94;45.54
59545;BME280;45368;55.002;-1.592;2023-04-03T12:41:01;102353.35;;;9.58;44.85
59545;BME280;45368;55.002;-1.592;2023-04-03T12:43:41;102351.45;;;9.73;44.93
59545;BME280;45368;55.002;-1.592;2023-04-03T12:46:14;102344.49;;;9.76;44.82
59545;BME280;45368;55.002;-1.592;2023-04-03T12:48:49;102340.05;;;10.01;44.31
59545;BME280;45368;55.002;-1.592;2023-04-03T12:51:21;102342.41;;;9.71;44.91
59545;BME280;45368;55.002;-1.592;2023-04-03T12:53:51;102335.38;;;9.25;45.76
59545;BME280;45368;55.002;-1.592;2023-04-03T12:56:23;102332.19;;;9.30;45.85
59545;BME280;45368;55.002;-1.592;2023-04-03T12:58:54;102328.49;;;9.30;45.58
59545;BME280;45368;55.002;-1.592;2023-04-03T13:01:24;102334.73;;;8.48;47.19
59545;BME280;45368;55.002;-1.592;2023-04-03T13:03:54;102327.45;;;9.12;46.37
59545;BME280;45368;55.002;-1.592;2023-04-03T13:06:24;102329.71;;;9.69;46.35
59545;BME280;45368;55.002;-1.592;2023-04-03T13:08:55;102329.32;;;9.73;45.10
59545;BME280;45368;55.002;-1.592;2023-04-03T13:11:25;102321.83;;;10.07;44.25